createdAt,value
2023-01-31T00:00:54.035Z,1.40
2023-01-31T00:03:23.331Z,1.30
2023-01-31T00:05:54.097Z,1.27
2023-01-31T00:08:23.387Z,1.30
2023-01-31T00:10:52.590Z,1.05
2023-01-31T00:13:21.889Z,1.25
2023-01-31T00:15:51.304Z,1.30
2023-01-31T00:18:20.615Z,1.48
2023-01-31T00:20:50.034Z,1.08
2023-01-31T00:23:20.747Z,1.10
2023-01-31T00:25:50.100Z,1.08
2023-01-31T00:28:19.352Z,1.20
2023-01-31T00:30:48.568Z,1.00
2023-01-31T00:33:18.750Z,1.55
2023-01-31T00:35:48.016Z,2.08
2023-01-31T00:38:17.357Z,1.13
2023-01-31T00:40:54.898Z,1.20
2023-01-31T00:43:24.163Z,0.83
2023-01-31T00:45:53.449Z,1.20
2023-01-31T00:48:22.893Z,1.10
2023-01-31T00:50:52.097Z,1.00
2023-01-31T00:53:24.098Z,1.20
2023-01-31T00:55:56.408Z,1.08
2023-01-31T00:58:26.267Z,1.33
2023-01-31T01:00:57.781Z,0.85
2023-01-31T01:03:27.286Z,0.88
2023-01-31T01:05:56.529Z,1.90
2023-01-31T01:08:25.800Z,0.88
2023-01-31T01:10:56.933Z,0.80
2023-01-31T01:13:26.230Z,1.75
2023-01-31T01:15:55.618Z,0.75
2023-01-31T01:18:25.041Z,0.70
2023-01-31T01:20:54.278Z,1.58
2023-01-31T01:23:23.569Z,0.77
2023-01-31T01:25:52.979Z,1.40
2023-01-31T01:28:25.739Z,0.80
2023-01-31T01:30:56.228Z,0.80
2023-01-31T01:33:25.522Z,0.85
2023-01-31T01:35:54.845Z,0.95
2023-01-31T01:38:24.291Z,0.60
2023-01-31T01:40:53.558Z,0.80
2023-01-31T01:43:41.435Z,0.70
2023-01-31T01:46:15.178Z,0.70
2023-01-31T01:48:46.409Z,0.70
2023-01-31T01:51:19.577Z,0.77
2023-01-31T01:53:52.059Z,0.90
2023-01-31T01:56:25.279Z,1.90
2023-01-31T01:59:02.907Z,0.80
2023-01-31T02:01:37.079Z,0.93
2023-01-31T02:04:16.359Z,0.70
2023-01-31T02:06:46.700Z,0.90
2023-01-31T02:09:21.633Z,0.90
2023-01-31T02:11:51.417Z,0.75
2023-01-31T02:14:25.874Z,0.80
2023-01-31T02:16:55.308Z,1.00
2023-01-31T02:19:31.547Z,0.82
2023-01-31T02:22:15.862Z,0.93
2023-01-31T02:25:36.281Z,0.85
2023-01-31T02:28:33.857Z,0.98
2023-01-31T02:31:38.286Z,0.57
2023-01-31T02:34:15.859Z,0.90
2023-01-31T02:37:02.079Z,0.80
2023-01-31T02:39:41.686Z,1.05
2023-01-31T02:42:22.741Z,0.80
2023-01-31T02:45:01.028Z,0.77
2023-01-31T02:47:42.619Z,0.80
2023-01-31T02:50:21.704Z,1.02
2023-01-31T02:52:57.975Z,0.93
2023-01-31T02:55:56.881Z,1.20
2023-01-31T02:58:30.796Z,0.80
2023-01-31T03:01:03.446Z,1.00
2023-01-31T03:03:36.951Z,0.85
2023-01-31T03:06:54.759Z,0.80
2023-01-31T03:09:37.053Z,0.80
2023-01-31T03:12:21.051Z,0.70
2023-01-31T03:15:06.933Z,0.80
2023-01-31T03:17:50.315Z,0.98
2023-01-31T03:20:25.255Z,0.97
2023-01-31T03:22:59.891Z,0.80
2023-01-31T03:25:33.857Z,0.80
2023-01-31T03:28:11.905Z,1.43
2023-01-31T03:30:44.806Z,0.70
2023-01-31T03:33:19.309Z,0.50
2023-01-31T03:35:53.762Z,0.80
2023-01-31T03:38:30.392Z,0.70
2023-01-31T03:41:07.136Z,1.20
2023-01-31T03:43:42.590Z,0.80
2023-01-31T03:46:17.077Z,0.70
2023-01-31T03:48:52.314Z,0.90
2023-01-31T03:51:26.033Z,0.93
2023-01-31T03:54:00.385Z,0.70
2023-01-31T03:56:34.353Z,0.70
2023-01-31T03:59:08.104Z,0.95
2023-01-31T04:01:42.331Z,0.70
2023-01-31T04:04:15.127Z,1.05
2023-01-31T04:06:45.691Z,0.80
2023-01-31T04:09:17.032Z,1.13
2023-01-31T04:11:50.347Z,0.85
2023-01-31T04:14:19.905Z,0.82
2023-01-31T04:16:49.161Z,0.70
2023-01-31T04:19:18.501Z,0.73
2023-01-31T04:21:47.945Z,1.38
2023-01-31T04:24:18.747Z,0.70
2023-01-31T04:26:48.132Z,0.90
2023-01-31T04:29:17.512Z,0.73
2023-01-31T04:31:47.602Z,0.83
2023-01-31T04:34:17.065Z,0.90
2023-01-31T04:36:46.388Z,1.10
2023-01-31T04:39:16.121Z,0.80
2023-01-31T04:41:46.847Z,2.08
2023-01-31T04:44:17.015Z,1.00
2023-01-31T04:46:47.420Z,1.53
2023-01-31T04:49:16.825Z,1.57
2023-01-31T04:51:46.180Z,12.10
2023-01-31T04:54:16.583Z,2.70
2023-01-31T04:56:47.301Z,5.70
2023-01-31T04:59:16.592Z,2.50
2023-01-31T05:01:45.768Z,10.97
2023-01-31T05:04:15.177Z,3.83
2023-01-31T05:06:44.775Z,7.33
2023-01-31T05:09:14.303Z,3.30
2023-01-31T05:11:43.562Z,3.38
2023-01-31T05:14:15.356Z,1.47
2023-01-31T05:16:47.406Z,6.22
2023-01-31T05:19:17.228Z,2.13
2023-01-31T05:21:59.715Z,1.77
2023-01-31T05:24:31.612Z,4.37
2023-01-31T05:27:03.438Z,5.05
2023-01-31T05:29:35.324Z,6.00
2023-01-31T05:32:05.601Z,5.95
2023-01-31T05:34:35.118Z,10.93
2023-01-31T05:37:04.654Z,12.13
2023-01-31T05:39:34.021Z,12.68
2023-01-31T05:42:03.368Z,15.35
2023-01-31T05:44:34.301Z,14.27
2023-01-31T05:47:03.930Z,16.60
2023-01-31T05:49:33.882Z,17.50
2023-01-31T05:52:03.711Z,17.85
2023-01-31T05:54:33.519Z,18.67
2023-01-31T05:57:02.922Z,19.45
2023-01-31T05:59:33.900Z,19.73
2023-01-31T06:02:03.298Z,21.27
2023-01-31T06:04:33.101Z,22.45
2023-01-31T06:07:02.926Z,21.25
2023-01-31T06:09:32.279Z,23.85
2023-01-31T06:12:01.523Z,21.92
2023-01-31T06:14:31.262Z,19.75
2023-01-31T06:17:02.468Z,20.55
2023-01-31T06:19:31.981Z,12.98
2023-01-31T06:22:01.234Z,16.17
2023-01-31T06:24:30.634Z,13.73
2023-01-31T06:26:59.927Z,14.93
2023-01-31T06:29:29.360Z,18.88
2023-01-31T06:31:58.839Z,14.63
2023-01-31T06:34:29.527Z,15.48
2023-01-31T06:36:59.259Z,16.65
2023-01-31T06:39:28.534Z,16.27
2023-01-31T06:41:57.773Z,15.43
2023-01-31T06:44:27.608Z,14.93
2023-01-31T06:46:57.287Z,15.52
2023-01-31T06:49:26.598Z,15.75
2023-01-31T06:51:57.425Z,17.80
2023-01-31T06:54:26.705Z,14.18
2023-01-31T06:56:56.319Z,14.05
2023-01-31T06:59:25.632Z,24.05
2023-01-31T07:01:55.022Z,23.50
2023-01-31T07:04:24.868Z,17.67
2023-01-31T07:06:54.196Z,16.02
2023-01-31T07:09:25.013Z,18.88
2023-01-31T07:11:54.298Z,21.02
2023-01-31T07:14:23.557Z,23.05
2023-01-31T07:16:52.951Z,24.42
2023-01-31T07:19:22.264Z,25.63
2023-01-31T07:21:51.500Z,26.27
2023-01-31T07:24:20.754Z,29.88
2023-01-31T07:26:54.157Z,35.63
2023-01-31T07:29:23.729Z,34.47
2023-01-31T07:31:53.427Z,24.63
2023-01-31T07:34:23.318Z,30.13
2023-01-31T07:36:53.154Z,30.65
2023-01-31T07:39:22.470Z,26.23
2023-01-31T07:41:53.246Z,27.40
2023-01-31T07:44:26.717Z,30.27
2023-01-31T07:46:56.885Z,54.97
2023-01-31T07:49:26.319Z,27.65
2023-01-31T07:51:55.686Z,22.58
2023-01-31T07:54:25.154Z,24.67
2023-01-31T07:56:55.894Z,25.77
2023-01-31T07:59:25.325Z,37.80
2023-01-31T08:02:11.820Z,24.42
2023-01-31T08:04:41.491Z,21.23
2023-01-31T08:07:10.768Z,22.95
2023-01-31T08:09:40.445Z,22.23
2023-01-31T08:12:11.542Z,23.65
2023-01-31T08:14:40.922Z,24.35
2023-01-31T08:17:10.584Z,27.08
2023-01-31T08:19:40.185Z,24.23
2023-01-31T08:22:11.103Z,24.05
2023-01-31T08:24:40.636Z,25.58
2023-01-31T08:27:11.532Z,25.92
2023-01-31T08:29:40.948Z,24.35
2023-01-31T08:32:10.271Z,24.73
2023-01-31T08:34:39.850Z,39.78
2023-01-31T08:37:09.479Z,136.15
2023-01-31T08:39:38.864Z,115.88
2023-01-31T08:42:08.667Z,61.33
2023-01-31T08:44:39.482Z,51.97
2023-01-31T08:47:08.977Z,43.30
2023-01-31T08:49:39.351Z,42.25
2023-01-31T08:52:08.873Z,45.55
2023-01-31T08:54:38.337Z,42.58
2023-01-31T08:57:07.819Z,32.60
2023-01-31T08:59:38.613Z,37.15
2023-01-31T09:02:08.010Z,31.60
2023-01-31T09:04:37.509Z,31.05
2023-01-31T09:07:06.925Z,27.55
2023-01-31T09:09:36.353Z,23.98
2023-01-31T09:12:05.930Z,31.95
2023-01-31T09:14:35.277Z,24.23
2023-01-31T09:17:08.296Z,23.02
2023-01-31T09:19:37.898Z,24.33
2023-01-31T09:22:07.110Z,24.65
2023-01-31T09:24:36.484Z,25.70
2023-01-31T09:27:06.185Z,23.08
2023-01-31T09:29:35.711Z,22.40
2023-01-31T09:32:07.028Z,22.77
2023-01-31T09:34:36.891Z,23.08
2023-01-31T09:37:06.317Z,23.25
2023-01-31T09:39:35.604Z,24.13
2023-01-31T09:42:19.277Z,23.42
2023-01-31T09:44:59.221Z,22.02
2023-01-31T09:47:35.597Z,21.65
2023-01-31T09:50:10.282Z,22.73
2023-01-31T09:52:40.745Z,23.13
2023-01-31T09:55:17.959Z,21.30
2023-01-31T09:57:58.248Z,20.95
2023-01-31T10:00:32.826Z,19.00
2023-01-31T10:03:28.239Z,24.30
2023-01-31T10:06:05.430Z,24.13
2023-01-31T10:08:46.840Z,21.35
2023-01-31T10:11:24.033Z,24.20
2023-01-31T10:13:57.999Z,22.83
2023-01-31T10:16:33.505Z,24.08
2023-01-31T10:19:09.000Z,24.02
2023-01-31T10:21:43.287Z,23.63
2023-01-31T10:24:17.825Z,24.23
2023-01-31T10:26:50.030Z,23.00
2023-01-31T10:29:28.226Z,22.30
2023-01-31T10:32:00.415Z,20.40
2023-01-31T10:34:36.447Z,19.85
2023-01-31T10:37:12.868Z,18.95
2023-01-31T10:39:45.974Z,21.02
2023-01-31T10:42:23.441Z,19.80
2023-01-31T10:44:55.564Z,19.48
2023-01-31T10:47:30.784Z,18.70
2023-01-31T10:50:01.687Z,20.02
2023-01-31T10:53:01.345Z,19.48
2023-01-31T10:55:54.045Z,16.95
2023-01-31T10:58:25.145Z,21.98
2023-01-31T11:00:55.337Z,17.55
2023-01-31T11:03:24.808Z,20.58
2023-01-31T11:05:57.745Z,24.30
2023-01-31T11:08:35.242Z,19.05
2023-01-31T11:11:09.626Z,24.05
2023-01-31T11:13:39.840Z,18.27
2023-01-31T11:16:13.340Z,19.58
2023-01-31T11:18:47.802Z,20.02
2023-01-31T11:21:25.616Z,22.65
2023-01-31T11:24:00.231Z,23.42
2023-01-31T11:26:33.318Z,20.48
2023-01-31T11:29:03.778Z,20.38
2023-01-31T11:31:42.205Z,19.20
2023-01-31T11:34:22.446Z,18.83
2023-01-31T11:36:54.241Z,17.05
2023-01-31T11:39:29.276Z,16.80
2023-01-31T11:41:58.927Z,19.30
2023-01-31T11:44:28.203Z,15.52
2023-01-31T11:47:00.894Z,17.80
2023-01-31T11:49:33.178Z,13.60
2023-01-31T11:52:13.985Z,14.23
2023-01-31T11:54:47.449Z,15.18
2023-01-31T11:57:18.902Z,13.48
2023-01-31T11:59:53.416Z,19.65
2023-01-31T12:02:32.451Z,16.38
2023-01-31T12:05:03.586Z,14.27
2023-01-31T12:07:44.695Z,23.83
2023-01-31T12:10:32.017Z,15.20
2023-01-31T12:13:16.732Z,16.80
2023-01-31T12:15:52.089Z,20.50
2023-01-31T12:21:17.077Z,20.40
2023-01-31T12:23:59.557Z,20.60
2023-01-31T12:26:40.723Z,15.23
2023-01-31T12:29:39.607Z,21.00
2023-01-31T12:32:21.586Z,20.27
2023-01-31T12:35:15.492Z,20.90
2023-01-31T12:37:58.176Z,21.85
2023-01-31T12:40:41.750Z,17.70
2023-01-31T12:43:27.609Z,21.35
2023-01-31T12:46:10.102Z,22.48
2023-01-31T12:49:08.357Z,20.90
2023-01-31T12:51:44.940Z,21.75
2023-01-31T12:54:29.012Z,20.70
2023-01-31T12:57:11.588Z,20.92
2023-01-31T12:59:51.129Z,20.65
2023-01-31T13:02:36.971Z,21.30
2023-01-31T13:05:19.393Z,21.55
2023-01-31T13:07:53.420Z,21.40
2023-01-31T13:10:34.748Z,20.23
2023-01-31T13:13:08.365Z,21.52
2023-01-31T13:15:45.889Z,21.48
2023-01-31T13:18:16.997Z,21.48
2023-01-31T13:20:51.735Z,21.70
2023-01-31T13:23:24.832Z,21.52
2023-01-31T13:25:59.141Z,21.65
2023-01-31T13:28:33.695Z,22.90
2023-01-31T13:31:07.650Z,22.73
2023-01-31T13:33:42.712Z,23.50
2023-01-31T13:36:31.236Z,21.75
2023-01-31T13:39:03.910Z,23.25
2023-01-31T13:41:35.011Z,23.95
2023-01-31T13:44:07.408Z,24.48
2023-01-31T13:46:43.855Z,23.10
2023-01-31T13:49:22.494Z,23.90
2023-01-31T13:51:57.254Z,17.60
2023-01-31T13:54:30.690Z,18.75
2023-01-31T13:57:02.892Z,20.60
2023-01-31T13:59:36.444Z,21.65
2023-01-31T14:02:09.930Z,24.42
2023-01-31T14:04:40.565Z,25.05
2023-01-31T14:07:25.777Z,23.33
2023-01-31T14:10:38.573Z,19.63
2023-01-31T14:13:36.072Z,23.08
2023-01-31T14:16:38.703Z,23.73
2023-01-31T14:19:32.655Z,22.98
2023-01-31T14:22:07.607Z,25.17
2023-01-31T14:24:58.675Z,27.38
2023-01-31T14:27:31.072Z,26.23
2023-01-31T14:30:10.629Z,28.30
2023-01-31T14:32:45.041Z,29.08
2023-01-31T14:35:47.593Z,29.35
2023-01-31T14:38:25.501Z,29.98
2023-01-31T14:41:04.044Z,28.88
2023-01-31T14:43:58.751Z,27.88
2023-01-31T14:46:45.744Z,26.55
2023-01-31T14:49:43.697Z,27.15
2023-01-31T14:52:33.934Z,27.92
2023-01-31T14:55:27.489Z,26.25
2023-01-31T14:58:00.489Z,28.77
2023-01-31T15:00:33.000Z,28.77
2023-01-31T15:03:07.135Z,26.92
2023-01-31T15:05:50.618Z,26.48
2023-01-31T15:08:45.859Z,28.25
2023-01-31T15:11:42.054Z,27.42
2023-01-31T15:14:35.497Z,27.45
2023-01-31T15:17:23.664Z,26.88
2023-01-31T15:20:08.588Z,22.02
2023-01-31T15:22:43.049Z,19.30
2023-01-31T15:25:25.408Z,18.77
2023-01-31T15:27:58.062Z,23.88
2023-01-31T15:30:30.358Z,27.30
2023-01-31T15:33:04.162Z,24.58
2023-01-31T15:35:36.432Z,21.20
2023-01-31T15:38:13.540Z,26.00
2023-01-31T15:40:43.374Z,23.30
2023-01-31T15:43:23.093Z,24.85
2023-01-31T15:45:53.083Z,20.52
2023-01-31T15:48:23.656Z,27.90
2023-01-31T15:50:55.209Z,29.17
2023-01-31T15:53:27.443Z,35.28
2023-01-31T15:55:59.775Z,27.70
2023-01-31T15:58:31.566Z,29.73
2023-01-31T16:01:02.981Z,27.30
2023-01-31T16:03:35.600Z,28.25
2023-01-31T16:06:05.608Z,29.80
2023-01-31T16:08:38.195Z,28.00
2023-01-31T16:11:09.821Z,27.88
2023-01-31T16:13:41.522Z,28.45
2023-01-31T16:16:14.253Z,27.75
2023-01-31T16:18:46.662Z,35.47
2023-01-31T16:21:25.366Z,67.65
2023-01-31T16:24:05.210Z,57.55
2023-01-31T16:26:39.016Z,48.45
2023-01-31T16:29:11.514Z,46.25
2023-01-31T16:31:48.472Z,41.33
2023-01-31T16:34:25.596Z,40.25
2023-01-31T16:36:59.538Z,38.25
2023-01-31T16:39:38.049Z,41.00
2023-01-31T16:42:10.623Z,41.78
2023-01-31T16:44:45.850Z,36.08
2023-01-31T16:47:34.284Z,60.47
2023-01-31T16:50:42.272Z,33.33
2023-01-31T16:53:20.490Z,38.85
2023-01-31T16:56:22.917Z,39.55
2023-01-31T16:58:55.618Z,36.03
2023-01-31T17:01:28.098Z,30.65
2023-01-31T17:04:17.059Z,26.30
2023-01-31T17:06:52.302Z,24.85
2023-01-31T17:09:24.556Z,27.10
2023-01-31T17:11:57.529Z,21.38
2023-01-31T17:14:28.498Z,23.65
2023-01-31T17:16:58.314Z,19.67
2023-01-31T17:19:31.087Z,27.17
2023-01-31T17:22:00.486Z,17.08
2023-01-31T17:24:29.983Z,16.95
2023-01-31T17:27:01.118Z,22.85
2023-01-31T17:29:30.519Z,20.90
2023-01-31T17:32:01.262Z,20.70
2023-01-31T17:34:30.895Z,20.42
2023-01-31T17:37:00.296Z,22.08
2023-01-31T17:39:29.761Z,37.03
2023-01-31T17:42:00.731Z,17.27
2023-01-31T17:44:30.378Z,20.20
2023-01-31T17:47:00.143Z,17.77
2023-01-31T17:49:29.558Z,14.77
2023-01-31T17:51:59.153Z,13.93
2023-01-31T17:54:28.623Z,16.02
2023-01-31T17:56:59.380Z,10.55
2023-01-31T17:59:28.920Z,16.90
2023-01-31T18:01:59.687Z,9.10
2023-01-31T18:04:29.217Z,6.30
2023-01-31T18:06:58.560Z,10.80
2023-01-31T18:09:27.871Z,11.27
2023-01-31T18:11:57.432Z,10.80
2023-01-31T18:14:28.588Z,7.95
2023-01-31T18:16:57.947Z,11.48
2023-01-31T18:19:27.511Z,9.05
2023-01-31T18:21:57.518Z,8.20
2023-01-31T18:24:27.374Z,12.77
2023-01-31T18:26:57.534Z,6.65
2023-01-31T18:29:28.543Z,6.35
2023-01-31T18:32:02.744Z,8.98
2023-01-31T18:34:33.342Z,6.15
2023-01-31T18:37:03.064Z,5.20
2023-01-31T18:39:32.611Z,5.88
2023-01-31T18:42:02.824Z,3.97
2023-01-31T18:44:33.576Z,5.20
2023-01-31T18:47:02.935Z,5.68
2023-01-31T18:49:32.458Z,5.05
2023-01-31T18:52:01.830Z,8.13
2023-01-31T18:54:31.479Z,5.70
2023-01-31T18:57:00.870Z,3.55
2023-01-31T18:59:30.189Z,4.20
2023-01-31T19:02:01.048Z,5.40
2023-01-31T19:04:30.401Z,3.40
2023-01-31T19:06:59.747Z,3.80
2023-01-31T19:09:29.242Z,4.78
2023-01-31T19:11:58.628Z,3.67
2023-01-31T19:14:28.065Z,8.10
2023-01-31T19:16:58.242Z,4.90
2023-01-31T19:19:29.141Z,3.42
2023-01-31T19:21:58.679Z,12.40
2023-01-31T19:24:28.028Z,4.05
2023-01-31T19:26:57.437Z,3.47
2023-01-31T19:29:28.289Z,2.28
2023-01-31T19:31:57.985Z,5.78
2023-01-31T19:34:28.963Z,3.13
2023-01-31T19:36:58.399Z,2.25
2023-01-31T19:39:27.888Z,7.18
2023-01-31T19:41:57.365Z,3.40
2023-01-31T19:44:26.936Z,4.38
2023-01-31T19:46:56.479Z,2.17
2023-01-31T19:49:25.837Z,2.67
2023-01-31T19:51:56.650Z,3.95
2023-01-31T19:54:27.936Z,3.33
2023-01-31T19:56:57.541Z,5.55
2023-01-31T19:59:28.171Z,5.00
2023-01-31T20:01:57.548Z,9.45
2023-01-31T20:04:26.776Z,6.13
2023-01-31T20:06:57.427Z,18.45
2023-01-31T20:09:26.666Z,10.20
2023-01-31T20:11:55.922Z,10.68
2023-01-31T20:14:25.272Z,8.38
2023-01-31T20:16:54.597Z,12.23
2023-01-31T20:19:24.813Z,10.02
2023-01-31T20:21:54.082Z,12.15
2023-01-31T20:24:24.909Z,12.20
2023-01-31T20:26:54.287Z,14.45
2023-01-31T20:29:23.810Z,11.52
2023-01-31T20:31:53.055Z,13.02
2023-01-31T20:34:22.317Z,13.05
2023-01-31T20:36:51.660Z,14.23
2023-01-31T20:39:21.038Z,14.48
2023-01-31T20:41:51.686Z,13.57
2023-01-31T20:44:20.881Z,15.65
2023-01-31T20:46:50.075Z,14.13
2023-01-31T20:49:21.495Z,15.48
2023-01-31T20:51:50.743Z,14.35
2023-01-31T20:54:19.994Z,16.83
2023-01-31T20:56:52.023Z,16.38
2023-01-31T20:59:21.367Z,17.35
2023-01-31T21:01:50.586Z,15.07
2023-01-31T21:04:20.171Z,16.63
2023-01-31T21:06:49.400Z,17.50
2023-01-31T21:09:18.675Z,18.65
2023-01-31T21:11:47.865Z,18.20
2023-01-31T21:14:18.539Z,17.95
2023-01-31T21:16:49.081Z,18.05
2023-01-31T21:19:18.680Z,18.17
2023-01-31T21:21:47.902Z,17.63
2023-01-31T21:24:17.338Z,18.23
2023-01-31T21:26:46.699Z,18.63
2023-01-31T21:29:18.758Z,20.40
2023-01-31T21:31:48.170Z,18.13
2023-01-31T21:34:17.623Z,18.73
2023-01-31T21:36:47.164Z,19.25
2023-01-31T21:39:16.654Z,20.52
2023-01-31T21:42:03.263Z,21.10
2023-01-31T21:44:33.938Z,19.27
2023-01-31T21:47:03.192Z,19.13
2023-01-31T21:49:32.507Z,20.75
2023-01-31T21:52:01.908Z,20.75
2023-01-31T21:54:31.138Z,21.08
2023-01-31T21:57:00.902Z,20.67
2023-01-31T21:59:30.129Z,21.10
2023-01-31T22:02:00.910Z,21.25
2023-01-31T22:04:30.135Z,21.67
2023-01-31T22:06:59.491Z,22.00
2023-01-31T22:09:28.880Z,23.17
2023-01-31T22:11:58.132Z,23.40
2023-01-31T22:14:27.379Z,23.73
2023-01-31T22:16:56.615Z,21.73
2023-01-31T22:19:27.298Z,21.63
2023-01-31T22:21:56.500Z,23.73
2023-01-31T22:24:25.727Z,22.95
2023-01-31T22:26:55.121Z,23.77
2023-01-31T22:29:24.455Z,25.95
2023-01-31T22:31:56.202Z,23.60
2023-01-31T22:34:26.929Z,23.10
2023-01-31T22:36:56.241Z,23.52
2023-01-31T22:39:25.492Z,25.15
2023-01-31T22:41:54.768Z,23.75
2023-01-31T22:44:24.123Z,24.75
2023-01-31T22:46:53.429Z,22.88
2023-01-31T22:49:22.799Z,23.65
2023-01-31T22:51:53.505Z,23.90
2023-01-31T22:54:22.887Z,28.83
2023-01-31T22:56:52.095Z,26.27
2023-01-31T22:59:21.561Z,26.80
2023-01-31T23:01:50.779Z,24.40
2023-01-31T23:04:20.041Z,25.20
2023-01-31T23:06:49.362Z,24.30
2023-01-31T23:09:20.175Z,25.83
2023-01-31T23:11:49.381Z,25.95
2023-01-31T23:14:18.586Z,23.63
2023-01-31T23:17:04.668Z,24.63
2023-01-31T23:19:34.060Z,26.05
2023-01-31T23:22:03.676Z,25.35
2023-01-31T23:24:36.349Z,23.83
2023-01-31T23:27:07.711Z,24.95
2023-01-31T23:29:36.977Z,23.42
2023-01-31T23:32:06.564Z,25.58
2023-01-31T23:34:35.833Z,24.48
2023-01-31T23:37:05.324Z,26.13
2023-01-31T23:39:36.125Z,25.00
2023-01-31T23:42:05.582Z,29.23
2023-01-31T23:44:34.850Z,25.95
2023-01-31T23:47:04.075Z,26.48
2023-01-31T23:49:33.458Z,27.08
2023-01-31T23:52:02.931Z,25.77
2023-01-31T23:54:32.126Z,27.85
2023-01-31T23:57:03.279Z,23.75
2023-01-31T23:59:33.970Z,27.55
